createdAt,value
2019-01-30T00:00:28.882Z,90.00
2019-01-30T00:02:57.299Z,89.70
2019-01-30T00:05:25.705Z,89.00
2019-01-30T00:07:54.117Z,88.10
2019-01-30T00:10:22.522Z,89.80
2019-01-30T00:12:51.078Z,88.60
2019-01-30T00:15:19.699Z,89.50
2019-01-30T00:17:48.292Z,90.00
2019-01-30T00:20:16.715Z,89.40
2019-01-30T00:22:45.115Z,89.30
2019-01-30T00:25:14.676Z,89.00
2019-01-30T00:27:43.394Z,89.30
2019-01-30T00:30:15.235Z,88.70
2019-01-30T00:32:44.383Z,88.60
2019-01-30T00:35:12.954Z,87.80
2019-01-30T00:37:41.336Z,87.90
2019-01-30T00:40:16.733Z,89.80
2019-01-30T00:42:45.172Z,89.00
2019-01-30T00:45:17.939Z,89.10
2019-01-30T00:47:46.509Z,88.80
2019-01-30T00:50:17.042Z,89.20
2019-01-30T00:52:48.220Z,90.00
2019-01-30T00:55:23.638Z,89.40
2019-01-30T00:57:52.190Z,89.60
2019-01-30T01:00:27.771Z,89.30
2019-01-30T01:02:56.324Z,89.70
2019-01-30T01:05:24.780Z,90.20
2019-01-30T01:07:53.400Z,89.80
2019-01-30T01:10:25.374Z,90.30
2019-01-30T01:12:54.000Z,89.20
2019-01-30T01:15:22.977Z,88.30
2019-01-30T01:17:51.899Z,89.10
2019-01-30T01:20:22.012Z,88.60
2019-01-30T01:22:58.348Z,88.50
2019-01-30T01:25:26.892Z,88.40
2019-01-30T01:27:55.249Z,89.20
2019-01-30T01:30:30.712Z,89.00
2019-01-30T01:32:59.239Z,89.30
2019-01-30T01:35:27.555Z,89.10
2019-01-30T01:37:56.228Z,88.80
2019-01-30T01:40:24.650Z,88.90
2019-01-30T01:42:53.235Z,86.00
2019-01-30T01:45:23.415Z,86.60
2019-01-30T01:47:52.154Z,84.50
2019-01-30T01:50:22.345Z,85.10
2019-01-30T01:52:50.881Z,82.10
2019-01-30T01:55:19.336Z,82.30
2019-01-30T01:57:47.677Z,81.90
2019-01-30T02:00:42.619Z,82.60
2019-01-30T02:03:11.064Z,84.60
2019-01-30T02:05:39.581Z,85.50
2019-01-30T02:08:07.967Z,85.50
2019-01-30T02:10:36.728Z,85.80
2019-01-30T02:13:05.436Z,86.10
2019-01-30T02:15:33.811Z,85.80
2019-01-30T02:18:02.251Z,86.80
2019-01-30T02:20:33.660Z,85.50
2019-01-30T02:23:02.280Z,86.20
2019-01-30T02:25:31.026Z,85.60
2019-01-30T02:27:59.648Z,86.60
2019-01-30T02:30:30.123Z,86.50
2019-01-30T02:32:58.652Z,86.40
2019-01-30T02:35:27.438Z,85.60
2019-01-30T02:37:56.208Z,85.50
2019-01-30T02:40:25.794Z,86.20
2019-01-30T02:42:54.615Z,84.70
2019-01-30T02:45:25.584Z,84.40
2019-01-30T02:47:54.147Z,84.40
2019-01-30T02:50:22.900Z,85.30
2019-01-30T02:52:51.325Z,85.00
2019-01-30T02:55:20.375Z,85.60
2019-01-30T02:57:48.970Z,84.50
2019-01-30T03:00:20.378Z,84.80
2019-01-30T03:02:48.794Z,84.00
2019-01-30T03:05:17.293Z,84.60
2019-01-30T03:07:45.945Z,85.00
2019-01-30T03:10:19.410Z,85.80
2019-01-30T03:12:47.764Z,86.80
2019-01-30T03:15:17.792Z,87.10
2019-01-30T03:17:46.541Z,86.30
2019-01-30T03:20:18.083Z,86.40
2019-01-30T03:22:51.984Z,86.00
2019-01-30T03:25:22.426Z,86.60
2019-01-30T03:27:50.707Z,86.10
2019-01-30T03:30:30.786Z,86.50
2019-01-30T03:32:59.347Z,86.10
2019-01-30T03:35:27.995Z,86.20
2019-01-30T03:37:56.413Z,86.20
2019-01-30T03:40:24.872Z,85.80
2019-01-30T03:42:54.979Z,85.70
2019-01-30T03:45:24.310Z,86.20
2019-01-30T03:47:52.838Z,85.80
2019-01-30T03:50:21.523Z,85.70
2019-01-30T03:52:50.256Z,84.90
2019-01-30T03:55:20.511Z,84.70
2019-01-30T03:57:49.213Z,85.50
2019-01-30T04:00:20.576Z,85.60
2019-01-30T04:02:49.463Z,85.90
2019-01-30T04:05:17.963Z,85.80
2019-01-30T04:07:49.485Z,86.00
2019-01-30T04:10:20.699Z,85.80
2019-01-30T04:12:56.341Z,86.30
2019-01-30T04:15:25.098Z,85.70
2019-01-30T04:17:53.544Z,85.80
2019-01-30T04:20:22.359Z,86.40
2019-01-30T04:22:54.134Z,86.90
2019-01-30T04:25:22.799Z,86.90
2019-01-30T04:27:51.475Z,85.80
2019-01-30T04:30:24.818Z,86.00
2019-01-30T04:32:53.279Z,85.70
2019-01-30T04:35:21.927Z,85.80
2019-01-30T04:37:50.363Z,85.90
2019-01-30T04:40:20.822Z,85.80
2019-01-30T04:42:49.370Z,85.80
2019-01-30T04:45:23.576Z,85.00
2019-01-30T04:47:52.299Z,86.40
2019-01-30T04:50:20.912Z,86.20
2019-01-30T04:52:49.600Z,85.70
2019-01-30T04:55:18.380Z,85.30
2019-01-30T04:57:46.792Z,86.20
2019-01-30T05:00:18.041Z,85.90
2019-01-30T05:02:46.486Z,85.50
2019-01-30T05:05:14.871Z,85.30
2019-01-30T05:07:43.473Z,85.40
2019-01-30T05:10:13.298Z,85.50
2019-01-30T05:12:43.776Z,85.40
2019-01-30T05:15:20.079Z,85.70
2019-01-30T05:17:51.246Z,84.80
2019-01-30T05:20:21.190Z,85.70
2019-01-30T05:22:53.179Z,85.30
2019-01-30T05:25:21.704Z,85.80
2019-01-30T05:27:50.218Z,85.90
2019-01-30T05:30:28.086Z,85.00
2019-01-30T05:32:56.459Z,85.20
2019-01-30T05:35:27.552Z,84.90
2019-01-30T05:37:56.211Z,85.00
2019-01-30T05:40:24.923Z,85.20
2019-01-30T05:42:53.636Z,85.30
2019-01-30T05:45:22.391Z,85.30
2019-01-30T05:47:50.906Z,86.10
2019-01-30T05:50:20.962Z,86.20
2019-01-30T05:52:49.429Z,86.50
2019-01-30T05:55:18.432Z,86.70
2019-01-30T05:57:46.906Z,87.00
2019-01-30T06:00:53.133Z,86.60
2019-01-30T06:03:21.570Z,86.50
2019-01-30T06:05:49.917Z,86.00
2019-01-30T06:08:18.663Z,86.60
2019-01-30T06:10:47.468Z,87.00
2019-01-30T06:13:19.768Z,86.30
2019-01-30T06:15:48.378Z,86.50
2019-01-30T06:18:17.661Z,86.50
2019-01-30T06:20:45.974Z,86.70
2019-01-30T06:23:14.814Z,86.50
2019-01-30T06:25:43.544Z,86.60
2019-01-30T06:28:12.237Z,86.20
2019-01-30T06:30:40.614Z,86.40
2019-01-30T06:33:09.220Z,86.50
2019-01-30T06:35:37.506Z,86.70
2019-01-30T06:38:05.855Z,86.00
2019-01-30T06:40:34.432Z,86.30
2019-01-30T06:43:03.010Z,86.30
2019-01-30T06:45:35.391Z,86.30
2019-01-30T06:48:03.711Z,85.70
2019-01-30T06:50:32.297Z,85.80
2019-01-30T06:53:00.636Z,85.80
2019-01-30T06:55:28.915Z,85.40
2019-01-30T06:57:57.500Z,85.90
2019-01-30T07:00:26.968Z,85.90
2019-01-30T07:02:56.418Z,86.40
2019-01-30T07:05:24.900Z,86.30
2019-01-30T07:07:53.360Z,86.40
2019-01-30T07:10:24.009Z,86.80
2019-01-30T07:12:52.921Z,87.00
2019-01-30T07:15:21.510Z,86.10
2019-01-30T07:17:49.812Z,87.00
2019-01-30T07:20:18.354Z,87.40
2019-01-30T07:22:53.384Z,86.80
2019-01-30T07:25:22.462Z,87.70
2019-01-30T07:27:51.101Z,87.20
2019-01-30T07:30:25.688Z,84.50
2019-01-30T07:32:54.370Z,84.70
2019-01-30T07:35:22.702Z,84.20
2019-01-30T07:37:50.989Z,83.50
2019-01-30T07:40:19.572Z,83.40
2019-01-30T07:42:47.850Z,83.40
2019-01-30T07:45:24.922Z,83.10
2019-01-30T07:47:53.485Z,83.40
2019-01-30T07:50:22.067Z,82.90
2019-01-30T07:52:50.674Z,82.50
2019-01-30T07:55:19.181Z,82.30
2019-01-30T07:57:47.665Z,82.60
2019-01-30T08:00:21.715Z,82.50
2019-01-30T08:02:53.424Z,80.40
2019-01-30T08:05:22.749Z,78.50
2019-01-30T08:07:51.344Z,78.00
2019-01-30T08:10:19.694Z,77.70
2019-01-30T08:12:48.425Z,76.70
2019-01-30T08:15:34.951Z,76.60
2019-01-30T08:18:03.638Z,77.20
2019-01-30T08:20:31.921Z,75.90
2019-01-30T08:23:00.778Z,74.50
2019-01-30T08:25:29.535Z,74.20
2019-01-30T08:27:58.665Z,73.00
2019-01-30T08:30:29.406Z,72.50
2019-01-30T08:33:04.617Z,71.90
2019-01-30T08:35:30.470Z,71.20
2019-01-30T08:37:59.047Z,70.90
2019-01-30T08:40:27.767Z,70.20
2019-01-30T08:42:56.527Z,68.90
2019-01-30T08:45:30.062Z,68.90
2019-01-30T08:47:58.453Z,68.90
2019-01-30T08:50:27.072Z,68.70
2019-01-30T08:52:55.472Z,67.30
2019-01-30T08:55:23.819Z,67.80
2019-01-30T08:57:52.417Z,66.10
2019-01-30T09:00:28.875Z,65.80
2019-01-30T09:02:57.199Z,64.80
2019-01-30T09:05:25.884Z,65.20
2019-01-30T09:07:54.995Z,63.60
2019-01-30T09:10:25.446Z,62.80
2019-01-30T09:12:53.881Z,62.60
2019-01-30T09:15:24.385Z,62.90
2019-01-30T09:17:52.830Z,62.80
2019-01-30T09:20:23.685Z,62.80
2019-01-30T09:22:51.992Z,62.60
2019-01-30T09:25:25.741Z,61.80
2019-01-30T09:27:54.420Z,61.80
2019-01-30T09:30:26.281Z,60.50
2019-01-30T09:32:55.503Z,61.60
2019-01-30T09:35:24.866Z,60.20
2019-01-30T09:37:57.014Z,59.90
2019-01-30T09:40:27.610Z,59.70
2019-01-30T09:42:59.133Z,59.70
2019-01-30T09:45:31.132Z,59.90
2019-01-30T09:47:59.550Z,59.40
2019-01-30T09:50:27.927Z,59.40
2019-01-30T09:52:56.211Z,59.80
2019-01-30T09:55:24.580Z,59.60
2019-01-30T09:57:53.003Z,59.60
2019-01-30T10:00:24.830Z,60.00
2019-01-30T10:02:53.182Z,59.60
2019-01-30T10:05:21.564Z,59.30
2019-01-30T10:07:50.008Z,59.10
2019-01-30T10:10:38.750Z,59.30
2019-01-30T10:13:07.863Z,59.10
2019-01-30T10:15:41.694Z,59.10
2019-01-30T10:18:11.006Z,59.20
2019-01-30T10:20:41.600Z,59.60
2019-01-30T10:23:10.172Z,58.60
2019-01-30T10:25:38.514Z,57.90
2019-01-30T10:28:16.245Z,58.40
2019-01-30T10:30:44.281Z,58.50
2019-01-30T10:33:12.616Z,58.80
2019-01-30T10:35:42.531Z,59.20
2019-01-30T10:38:10.913Z,59.60
2019-01-30T10:40:39.220Z,60.20
2019-01-30T10:43:09.353Z,60.30
2019-01-30T10:45:38.278Z,60.90
2019-01-30T10:48:07.198Z,63.20
2019-01-30T10:50:35.570Z,62.60
2019-01-30T10:53:04.107Z,63.10
2019-01-30T10:55:34.637Z,63.70
2019-01-30T10:58:05.604Z,63.70
2019-01-30T11:00:45.734Z,64.40
2019-01-30T11:03:14.153Z,64.80
2019-01-30T11:05:45.563Z,64.40
2019-01-30T11:08:14.022Z,64.80
2019-01-30T11:10:42.795Z,65.70
2019-01-30T11:13:11.241Z,66.00
2019-01-30T11:15:39.592Z,66.60
2019-01-30T11:18:10.013Z,66.40
2019-01-30T11:20:38.366Z,67.40
2019-01-30T11:23:07.473Z,66.10
2019-01-30T11:25:44.455Z,66.60
2019-01-30T11:28:12.929Z,67.20
2019-01-30T11:30:41.541Z,67.00
2019-01-30T11:33:09.942Z,67.10
2019-01-30T11:35:38.333Z,66.00
2019-01-30T11:38:08.759Z,65.50
2019-01-30T11:40:37.270Z,64.40
2019-01-30T11:43:05.590Z,63.80
2019-01-30T11:45:42.441Z,63.80
2019-01-30T11:48:11.084Z,63.50
2019-01-30T11:50:41.385Z,63.30
2019-01-30T11:53:10.025Z,63.60
2019-01-30T11:55:39.092Z,63.10
2019-01-30T11:58:07.763Z,64.40
2019-01-30T12:00:37.907Z,62.40
2019-01-30T12:03:06.422Z,62.20
2019-01-30T12:05:34.759Z,62.50
2019-01-30T12:08:03.366Z,62.70
2019-01-30T12:10:31.768Z,62.50
2019-01-30T12:13:00.068Z,59.40
2019-01-30T12:15:33.167Z,59.30
2019-01-30T12:18:01.500Z,58.20
2019-01-30T12:20:29.962Z,58.80
2019-01-30T12:22:58.628Z,59.20
2019-01-30T12:25:27.403Z,57.80
2019-01-30T12:27:59.425Z,59.10
2019-01-30T12:30:29.203Z,58.30
2019-01-30T12:32:57.622Z,58.40
2019-01-30T12:35:26.110Z,58.60
2019-01-30T12:37:55.028Z,60.20
2019-01-30T12:40:29.593Z,59.30
2019-01-30T12:43:03.768Z,58.50
2019-01-30T12:45:37.384Z,58.80
2019-01-30T12:48:06.630Z,59.50
2019-01-30T12:50:35.164Z,61.00
2019-01-30T12:53:03.802Z,62.00
2019-01-30T12:55:32.179Z,59.70
2019-01-30T12:58:00.645Z,59.20
2019-01-30T13:00:37.433Z,59.50
2019-01-30T13:03:05.901Z,61.00
2019-01-30T13:05:34.603Z,58.90
2019-01-30T13:08:04.828Z,59.60
2019-01-30T13:10:33.389Z,59.10
2019-01-30T13:13:01.727Z,59.60
2019-01-30T13:15:30.660Z,60.80
2019-01-30T13:18:15.726Z,60.00
2019-01-30T13:20:35.600Z,60.90
2019-01-30T13:23:03.997Z,61.40
2019-01-30T13:25:33.040Z,60.90
2019-01-30T13:28:01.356Z,60.90
2019-01-30T13:30:32.695Z,61.20
2019-01-30T13:33:01.548Z,60.50
2019-01-30T13:35:29.917Z,60.30
2019-01-30T13:38:02.009Z,61.80
2019-01-30T13:40:35.582Z,63.10
2019-01-30T13:43:04.774Z,62.20
2019-01-30T13:45:33.700Z,60.80
2019-01-30T13:48:02.146Z,61.00
2019-01-30T13:50:30.622Z,60.50
2019-01-30T13:52:59.079Z,61.40
2019-01-30T13:55:27.744Z,60.70
2019-01-30T13:57:56.306Z,61.50
2019-01-30T14:01:05.240Z,64.30
2019-01-30T14:03:33.912Z,60.40
2019-01-30T14:06:02.686Z,60.90
2019-01-30T14:08:31.232Z,61.70
2019-01-30T14:10:59.545Z,61.50
2019-01-30T14:13:27.953Z,62.70
2019-01-30T14:15:56.823Z,61.90
2019-01-30T14:18:26.866Z,62.10
2019-01-30T14:20:55.191Z,64.20
2019-01-30T14:23:23.572Z,63.80
2019-01-30T14:25:51.928Z,64.90
2019-01-30T14:28:20.208Z,66.10
2019-01-30T14:30:48.570Z,67.20
2019-01-30T14:33:17.017Z,67.00
2019-01-30T14:35:45.431Z,67.90
2019-01-30T14:38:13.720Z,69.20
2019-01-30T14:40:42.465Z,68.60
2019-01-30T14:43:10.890Z,68.60
2019-01-30T14:45:39.296Z,69.50
2019-01-30T14:48:07.668Z,69.50
2019-01-30T14:50:36.187Z,69.60
2019-01-30T14:53:04.644Z,70.80
2019-01-30T14:55:33.171Z,70.20
2019-01-30T14:58:02.024Z,70.00
2019-01-30T15:00:32.377Z,70.30
2019-01-30T15:03:02.572Z,70.30
2019-01-30T15:05:30.929Z,70.30
2019-01-30T15:08:00.221Z,70.60
2019-01-30T15:10:30.263Z,71.10
2019-01-30T15:12:58.744Z,71.20
2019-01-30T15:15:32.004Z,71.30
2019-01-30T15:18:02.371Z,70.80
2019-01-30T15:20:33.652Z,70.50
2019-01-30T15:23:02.286Z,69.70
2019-01-30T15:25:38.181Z,69.20
2019-01-30T15:28:06.571Z,70.10
2019-01-30T15:30:37.779Z,69.60
2019-01-30T15:33:06.891Z,69.40
2019-01-30T15:35:35.658Z,68.70
2019-01-30T15:38:06.517Z,68.40
2019-01-30T15:40:36.515Z,67.90
2019-01-30T15:43:05.056Z,68.00
2019-01-30T15:45:33.445Z,66.80
2019-01-30T15:48:01.825Z,66.80
2019-01-30T15:50:36.140Z,66.60
2019-01-30T15:53:09.286Z,66.60
2019-01-30T15:55:37.083Z,66.50
2019-01-30T15:58:08.385Z,65.70
2019-01-30T16:01:36.827Z,65.00
2019-01-30T16:04:06.105Z,65.50
2019-01-30T16:06:34.652Z,64.70
2019-01-30T16:09:04.706Z,64.50
2019-01-30T16:11:33.436Z,64.80
2019-01-30T16:14:01.959Z,65.00
2019-01-30T16:16:30.931Z,64.30
2019-01-30T16:21:54.456Z,63.30
2019-01-30T16:24:22.902Z,63.80
2019-01-30T16:26:51.346Z,64.90
2019-01-30T16:29:21.557Z,64.50
2019-01-30T16:31:54.135Z,64.10
2019-01-30T16:34:22.567Z,63.50
2019-01-30T16:36:50.987Z,62.30
2019-01-30T16:39:19.684Z,62.50
2019-01-30T16:41:48.427Z,63.00
2019-01-30T16:44:17.042Z,62.40
2019-01-30T16:46:45.389Z,62.20
2019-01-30T16:49:16.849Z,62.90
2019-01-30T16:51:49.099Z,61.80
2019-01-30T16:54:18.136Z,61.50
2019-01-30T16:56:51.300Z,61.50
2019-01-30T16:59:20.091Z,60.80
2019-01-30T17:01:48.761Z,60.60
2019-01-30T17:04:17.418Z,60.80
2019-01-30T17:06:45.777Z,61.00
2019-01-30T17:09:14.289Z,60.30
2019-01-30T17:11:42.731Z,59.70
2019-01-30T17:14:12.417Z,60.50
2019-01-30T17:16:40.839Z,60.10
2019-01-30T17:19:09.357Z,60.60
2019-01-30T17:21:37.852Z,61.00
2019-01-30T17:24:06.408Z,61.50
2019-01-30T17:26:35.407Z,61.70
2019-01-30T17:29:03.958Z,62.30
2019-01-30T17:31:34.594Z,62.60
2019-01-30T17:34:04.358Z,63.30
2019-01-30T17:36:33.024Z,63.90
2019-01-30T17:39:01.623Z,64.10
2019-01-30T17:41:30.105Z,64.00
2019-01-30T17:43:59.121Z,64.20
2019-01-30T17:46:28.068Z,64.50
2019-01-30T17:48:56.967Z,65.80
2019-01-30T17:51:25.344Z,65.90
2019-01-30T17:53:53.886Z,66.00
2019-01-30T17:56:22.263Z,66.90
2019-01-30T17:58:51.171Z,66.20
2019-01-30T18:01:19.628Z,66.00
2019-01-30T18:03:48.254Z,66.00
2019-01-30T18:06:16.853Z,66.00
2019-01-30T18:08:45.377Z,66.50
2019-01-30T18:11:13.830Z,66.10
2019-01-30T18:13:45.077Z,66.60
2019-01-30T18:16:12.767Z,67.20
2019-01-30T18:18:41.229Z,67.10
2019-01-30T18:21:09.575Z,67.00
2019-01-30T18:23:41.638Z,67.60
2019-01-30T18:26:13.559Z,67.80
2019-01-30T18:28:42.110Z,67.80
2019-01-30T18:31:11.906Z,69.10
2019-01-30T18:33:40.822Z,68.50
2019-01-30T18:36:09.440Z,68.80
2019-01-30T18:38:38.197Z,69.20
2019-01-30T18:41:07.222Z,69.40
2019-01-30T18:43:37.600Z,69.20
2019-01-30T18:46:07.990Z,69.00
2019-01-30T18:48:43.538Z,70.00
2019-01-30T18:51:12.398Z,70.30
2019-01-30T18:53:40.947Z,71.00
2019-01-30T18:56:12.563Z,71.80
2019-01-30T18:58:41.068Z,71.30
2019-01-30T19:01:09.846Z,71.60
2019-01-30T19:03:38.920Z,72.00
2019-01-30T19:06:07.328Z,70.50
2019-01-30T19:08:36.068Z,70.50
2019-01-30T19:11:04.636Z,70.10
2019-01-30T19:13:33.334Z,69.70
2019-01-30T19:16:03.038Z,70.70
2019-01-30T19:18:31.586Z,71.00
2019-01-30T19:21:00.137Z,70.30
2019-01-30T19:23:30.299Z,70.80
2019-01-30T19:25:58.795Z,70.30
2019-01-30T19:28:27.379Z,70.40
2019-01-30T19:30:58.380Z,69.80
2019-01-30T19:33:26.919Z,71.10
2019-01-30T19:35:55.525Z,70.00
2019-01-30T19:38:24.310Z,70.50
2019-01-30T19:40:52.990Z,70.10
2019-01-30T19:43:21.675Z,71.10
2019-01-30T19:45:50.406Z,71.00
2019-01-30T19:48:18.900Z,70.60
2019-01-30T19:50:47.837Z,69.50
2019-01-30T19:53:16.532Z,70.50
2019-01-30T19:55:45.091Z,71.10
2019-01-30T19:58:16.791Z,70.00
2019-01-30T20:00:46.067Z,69.80
2019-01-30T20:03:17.929Z,69.50
2019-01-30T20:05:46.658Z,69.30
2019-01-30T20:08:15.186Z,69.80
2019-01-30T20:10:43.682Z,68.50
2019-01-30T20:13:12.288Z,69.30
2019-01-30T20:15:40.683Z,69.20
2019-01-30T20:18:09.400Z,69.20
2019-01-30T20:20:39.130Z,69.20
2019-01-30T20:23:07.718Z,70.30
2019-01-30T20:25:43.971Z,70.80
2019-01-30T20:28:14.615Z,71.20
2019-01-30T20:30:43.255Z,69.60
2019-01-30T20:33:11.910Z,69.90
2019-01-30T20:35:40.668Z,70.50
2019-01-30T20:38:09.120Z,70.00
2019-01-30T20:40:40.147Z,68.60
2019-01-30T20:43:09.013Z,69.40
2019-01-30T20:45:37.396Z,69.60
2019-01-30T20:48:09.311Z,68.90
2019-01-30T20:50:38.426Z,68.00
2019-01-30T20:53:09.616Z,69.40
2019-01-30T20:55:38.911Z,67.90
2019-01-30T20:58:16.268Z,67.40
2019-01-30T21:00:44.828Z,67.90
2019-01-30T21:03:13.428Z,70.30
2019-01-30T21:05:45.214Z,69.50
2019-01-30T21:08:13.772Z,69.00
2019-01-30T21:10:43.879Z,67.10
2019-01-30T21:13:12.705Z,67.30
2019-01-30T21:15:41.620Z,67.30
2019-01-30T21:18:09.995Z,67.20
2019-01-30T21:20:38.518Z,67.20
2019-01-30T21:23:11.243Z,68.30
2019-01-30T21:25:43.395Z,67.90
2019-01-30T21:28:12.403Z,69.50
2019-01-30T21:30:43.146Z,69.30
2019-01-30T21:33:12.361Z,70.60
2019-01-30T21:35:41.127Z,70.70
2019-01-30T21:38:09.740Z,72.10
2019-01-30T21:40:45.434Z,71.60
2019-01-30T21:43:18.239Z,71.10
2019-01-30T21:45:48.831Z,71.40
2019-01-30T21:48:17.740Z,72.60
2019-01-30T21:50:46.195Z,73.50
2019-01-30T21:53:15.103Z,73.50
2019-01-30T21:55:43.747Z,74.10
2019-01-30T21:58:12.342Z,74.20
2019-01-30T22:00:41.072Z,74.30
2019-01-30T22:03:09.745Z,72.80
2019-01-30T22:05:38.410Z,72.50
2019-01-30T22:08:07.750Z,72.70
2019-01-30T22:10:36.593Z,72.70
2019-01-30T22:13:05.665Z,72.00
2019-01-30T22:15:34.319Z,71.70
2019-01-30T22:18:02.753Z,72.50
2019-01-30T22:20:32.707Z,74.60
2019-01-30T22:23:01.309Z,74.40
2019-01-30T22:25:29.987Z,74.70
2019-01-30T22:28:00.089Z,73.50
2019-01-30T22:30:31.271Z,73.60
2019-01-30T22:32:59.793Z,74.60
2019-01-30T22:35:28.589Z,74.10
2019-01-30T22:37:57.539Z,76.00
2019-01-30T22:40:26.432Z,75.70
2019-01-30T22:42:56.219Z,76.30
2019-01-30T22:45:25.044Z,76.10
2019-01-30T22:47:53.499Z,77.50
2019-01-30T22:50:23.101Z,76.30
2019-01-30T22:52:51.906Z,76.60
2019-01-30T22:55:22.439Z,76.70
2019-01-30T22:57:51.548Z,76.80
2019-01-30T23:00:54.198Z,78.10
2019-01-30T23:03:41.005Z,78.60
2019-01-30T23:06:15.443Z,78.40
2019-01-30T23:09:20.626Z,79.00
2019-01-30T23:12:24.174Z,79.90
2019-01-30T23:15:14.264Z,78.70
2019-01-30T23:18:02.472Z,79.20
2019-01-30T23:20:32.541Z,79.90
2019-01-30T23:23:27.183Z,79.90
2019-01-30T23:26:04.913Z,81.00
2019-01-30T23:28:48.631Z,79.90
2019-01-30T23:31:47.851Z,80.30
2019-01-30T23:34:46.874Z,80.50
2019-01-30T23:37:24.283Z,79.50
2019-01-30T23:39:58.694Z,80.30
2019-01-30T23:42:57.318Z,78.90
2019-01-30T23:45:31.693Z,79.80
2019-01-30T23:48:26.295Z,80.10
2019-01-30T23:51:35.859Z,80.40
2019-01-30T23:54:28.517Z,80.50
2019-01-30T23:57:15.514Z,79.50
